createdAt,value
2022-11-25T00:01:54.031Z,92.68
2022-11-25T00:04:23.324Z,93.74
2022-11-25T00:06:52.493Z,93.67
2022-11-25T00:09:21.769Z,93.27
2022-11-25T00:11:58.011Z,92.72
2022-11-25T00:14:27.327Z,93.18
2022-11-25T00:16:58.389Z,93.43
2022-11-25T00:19:27.598Z,93.52
2022-11-25T00:21:56.730Z,94.04
2022-11-25T00:24:26.127Z,94.08
2022-11-25T00:26:55.246Z,94.27
2022-11-25T00:29:24.584Z,94.36
2022-11-25T00:31:53.755Z,94.12
2022-11-25T00:34:25.029Z,93.61
2022-11-25T00:36:56.049Z,94.00
2022-11-25T00:39:26.688Z,93.67
2022-11-25T00:42:13.756Z,93.96
2022-11-25T00:44:48.040Z,93.74
2022-11-25T00:47:20.368Z,94.40
2022-11-25T00:49:54.285Z,94.76
2022-11-25T00:52:25.523Z,95.03
2022-11-25T00:54:59.780Z,94.84
2022-11-25T00:57:34.024Z,94.81
2022-11-25T01:00:03.523Z,94.83
2022-11-25T01:02:33.465Z,95.32
2022-11-25T01:05:05.088Z,95.33
2022-11-25T01:07:36.733Z,97.12
2022-11-25T01:12:49.868Z,97.94
2022-11-25T01:15:19.186Z,98.14
2022-11-25T01:17:56.182Z,97.17
2022-11-25T01:20:27.831Z,97.76
2022-11-25T01:23:02.161Z,97.75
2022-11-25T01:25:31.457Z,98.38
2022-11-25T01:28:02.223Z,98.79
2022-11-25T01:30:41.052Z,97.99
2022-11-25T01:33:10.702Z,98.05
2022-11-25T01:35:41.878Z,97.81
2022-11-25T01:38:16.138Z,97.76
2022-11-25T01:40:47.586Z,98.11
2022-11-25T01:43:17.332Z,97.61
2022-11-25T01:45:47.358Z,97.61
2022-11-25T01:48:22.561Z,97.24
2022-11-25T01:50:55.198Z,97.93
2022-11-25T01:53:29.572Z,98.32
2022-11-25T01:56:05.002Z,98.04
2022-11-25T01:58:39.483Z,97.77
2022-11-25T02:01:10.419Z,97.44
2022-11-25T02:03:49.623Z,97.00
2022-11-25T02:06:31.841Z,96.47
2022-11-25T02:09:07.590Z,96.30
2022-11-25T02:11:40.849Z,96.58
2022-11-25T02:14:11.472Z,96.53
2022-11-25T02:16:40.963Z,96.07
2022-11-25T02:19:22.895Z,95.52
2022-11-25T02:22:01.505Z,95.88
2022-11-25T02:24:44.857Z,95.39
2022-11-25T02:27:18.003Z,94.60
2022-11-25T02:29:49.259Z,95.22
2022-11-25T02:32:24.506Z,95.19
2022-11-25T02:34:53.755Z,94.52
2022-11-25T02:37:28.154Z,94.81
2022-11-25T02:39:59.163Z,94.62
2022-11-25T02:42:31.822Z,94.02
2022-11-25T02:45:16.699Z,95.09
2022-11-25T02:47:46.068Z,95.38
2022-11-25T02:50:25.897Z,95.49
2022-11-25T02:52:56.127Z,95.75
2022-11-25T02:55:25.373Z,95.61
2022-11-25T02:57:56.609Z,95.27
2022-11-25T03:00:26.001Z,95.84
2022-11-25T03:03:01.543Z,95.61
2022-11-25T03:05:30.905Z,95.28
2022-11-25T03:08:02.189Z,95.84
2022-11-25T03:10:32.426Z,95.91
2022-11-25T03:13:04.401Z,95.63
2022-11-25T03:15:35.024Z,95.21
2022-11-25T03:18:04.701Z,94.68
2022-11-25T03:20:39.827Z,94.99
2022-11-25T03:23:10.050Z,94.68
2022-11-25T03:25:39.267Z,95.06
2022-11-25T03:28:11.710Z,95.16
2022-11-25T03:30:41.047Z,95.09
2022-11-25T03:33:11.091Z,94.98
2022-11-25T03:35:40.476Z,95.05
2022-11-25T03:38:09.891Z,94.49
2022-11-25T03:43:22.308Z,94.77
2022-11-25T03:45:51.931Z,94.86
2022-11-25T03:48:21.120Z,94.50
2022-11-25T03:50:50.930Z,94.89
2022-11-25T03:53:21.111Z,94.71
2022-11-25T03:55:50.667Z,94.58
2022-11-25T03:58:25.471Z,94.67
2022-11-25T04:00:54.543Z,94.73
2022-11-25T04:03:23.862Z,94.63
2022-11-25T04:05:53.164Z,94.38
2022-11-25T04:08:22.874Z,94.55
2022-11-25T04:10:52.951Z,94.42
2022-11-25T04:13:31.230Z,95.08
2022-11-25T04:16:00.545Z,94.82
2022-11-25T04:18:29.745Z,95.13
2022-11-25T04:21:09.279Z,95.29
2022-11-25T04:23:38.671Z,95.41
2022-11-25T04:26:11.882Z,95.88
2022-11-25T04:28:46.341Z,96.68
2022-11-25T04:33:52.864Z,97.32
2022-11-25T04:36:24.525Z,97.79
2022-11-25T04:38:59.491Z,97.69
2022-11-25T04:41:34.607Z,97.28
2022-11-25T04:44:06.417Z,97.07
2022-11-25T04:46:43.539Z,97.47
2022-11-25T04:49:13.974Z,97.62
2022-11-25T04:51:43.348Z,97.18
2022-11-25T04:54:17.475Z,97.94
2022-11-25T04:56:48.230Z,97.85
2022-11-25T04:59:34.708Z,97.97
2022-11-25T05:02:04.663Z,98.07
2022-11-25T05:04:38.568Z,98.53
2022-11-25T05:07:09.271Z,98.34
2022-11-25T05:09:45.179Z,97.92
2022-11-25T05:12:21.803Z,97.59
2022-11-25T05:14:53.283Z,98.98
2022-11-25T05:17:25.543Z,99.16
2022-11-25T05:20:01.872Z,98.82
2022-11-25T05:22:34.205Z,98.76
2022-11-25T05:25:07.116Z,97.95
2022-11-25T05:27:42.109Z,98.40
2022-11-25T05:30:15.389Z,98.08
2022-11-25T05:32:46.210Z,98.29
2022-11-25T05:35:15.547Z,99.78
2022-11-25T05:37:50.854Z,99.95
2022-11-25T05:40:20.241Z,100.00
2022-11-25T05:43:03.468Z,100.00
2022-11-25T05:45:46.305Z,100.00
2022-11-25T05:48:16.755Z,100.00
2022-11-25T05:50:52.219Z,99.71
2022-11-25T05:53:25.129Z,99.82
2022-11-25T05:56:00.131Z,99.99
2022-11-25T05:58:54.531Z,99.67
2022-11-25T06:01:27.836Z,99.37
2022-11-25T06:03:57.172Z,99.14
2022-11-25T06:06:26.368Z,100.00
2022-11-25T06:08:55.869Z,99.95
2022-11-25T06:11:26.204Z,99.73
2022-11-25T06:14:02.522Z,99.24
2022-11-25T06:16:33.771Z,99.49
2022-11-25T06:19:19.284Z,98.99
2022-11-25T06:21:48.571Z,99.42
2022-11-25T06:24:22.757Z,98.74
2022-11-25T06:27:02.050Z,99.01
2022-11-25T06:29:31.625Z,98.84
2022-11-25T06:32:02.785Z,99.07
2022-11-25T06:34:43.521Z,99.90
2022-11-25T06:37:28.761Z,99.81
2022-11-25T06:40:03.052Z,99.49
2022-11-25T06:42:32.760Z,99.36
2022-11-25T06:45:01.898Z,99.55
2022-11-25T06:47:34.905Z,99.08
2022-11-25T06:50:04.356Z,99.44
2022-11-25T06:52:45.011Z,98.58
2022-11-25T06:55:14.258Z,98.34
2022-11-25T06:57:43.351Z,98.29
2022-11-25T07:00:13.788Z,98.30
2022-11-25T07:02:48.518Z,98.22
2022-11-25T07:05:18.271Z,98.23
2022-11-25T07:07:47.864Z,98.70
2022-11-25T07:10:17.274Z,98.72
2022-11-25T07:12:46.385Z,99.19
2022-11-25T07:15:15.804Z,98.96
2022-11-25T07:17:46.923Z,98.39
2022-11-25T07:20:16.292Z,98.33
2022-11-25T07:22:45.424Z,98.83
2022-11-25T07:25:14.680Z,98.79
2022-11-25T07:27:43.917Z,98.80
2022-11-25T07:33:05.217Z,98.05
2022-11-25T07:35:36.001Z,98.29
2022-11-25T07:38:10.413Z,98.14
2022-11-25T07:40:39.539Z,98.38
2022-11-25T07:43:08.851Z,98.93
2022-11-25T07:45:37.972Z,99.38
2022-11-25T07:48:16.870Z,99.40
2022-11-25T07:50:46.543Z,99.36
2022-11-25T07:53:15.869Z,98.90
2022-11-25T07:55:45.232Z,98.37
2022-11-25T07:58:14.436Z,98.11
2022-11-25T08:00:43.621Z,97.75
2022-11-25T08:03:12.839Z,97.51
2022-11-25T08:05:44.136Z,97.84
2022-11-25T08:08:13.434Z,97.93
2022-11-25T08:10:42.824Z,98.60
2022-11-25T08:13:12.053Z,99.09
2022-11-25T08:15:41.217Z,98.88
2022-11-25T08:18:17.188Z,98.36
2022-11-25T08:20:48.373Z,98.23
2022-11-25T08:23:23.683Z,98.50
2022-11-25T08:25:52.989Z,98.26
2022-11-25T08:28:22.298Z,98.39
2022-11-25T08:30:51.585Z,98.42
2022-11-25T08:33:20.819Z,98.21
2022-11-25T08:35:57.674Z,98.43
2022-11-25T08:38:27.776Z,98.40
2022-11-25T08:40:57.536Z,98.48
2022-11-25T08:43:29.559Z,97.99
2022-11-25T08:45:59.280Z,97.73
2022-11-25T08:48:28.377Z,98.15
2022-11-25T08:50:59.975Z,97.68
2022-11-25T08:53:29.612Z,98.21
2022-11-25T08:55:58.781Z,98.65
2022-11-25T08:58:33.629Z,98.97
2022-11-25T09:01:03.652Z,98.44
2022-11-25T09:03:49.058Z,97.97
2022-11-25T09:07:03.106Z,97.75
2022-11-25T09:09:56.907Z,98.12
2022-11-25T09:12:41.823Z,97.43
2022-11-25T09:15:12.890Z,97.33
2022-11-25T09:17:42.197Z,97.23
2022-11-25T09:20:12.232Z,96.86
2022-11-25T09:22:43.470Z,97.05
2022-11-25T09:25:12.746Z,97.06
2022-11-25T09:27:41.942Z,97.23
2022-11-25T09:30:18.211Z,96.82
2022-11-25T09:32:50.946Z,96.85
2022-11-25T09:38:03.403Z,96.95
2022-11-25T09:43:45.504Z,96.55
2022-11-25T09:46:45.596Z,96.16
2022-11-25T09:49:51.530Z,95.50
2022-11-25T09:52:29.443Z,95.64
2022-11-25T09:55:07.293Z,95.76
2022-11-25T09:57:59.812Z,95.76
2022-11-25T10:00:45.814Z,94.95
2022-11-25T10:03:24.647Z,94.65
2022-11-25T10:06:04.608Z,94.46
2022-11-25T10:08:40.747Z,92.94
2022-11-25T10:11:23.613Z,92.81
2022-11-25T10:14:00.435Z,93.60
2022-11-25T10:16:51.989Z,92.15
2022-11-25T10:19:36.974Z,93.15
2022-11-25T10:22:22.455Z,91.85
2022-11-25T10:24:54.805Z,92.45
2022-11-25T10:27:33.072Z,92.80
2022-11-25T10:30:19.665Z,91.60
2022-11-25T10:33:02.113Z,91.02
2022-11-25T10:35:35.997Z,92.09
2022-11-25T10:38:13.319Z,91.88
2022-11-25T10:40:48.143Z,91.70
2022-11-25T10:43:31.918Z,91.99
2022-11-25T10:46:12.420Z,92.50
2022-11-25T10:49:00.437Z,92.14
2022-11-25T10:51:38.664Z,91.96
2022-11-25T10:54:26.791Z,91.81
2022-11-25T10:56:59.110Z,92.10
2022-11-25T10:59:32.916Z,92.29
2022-11-25T11:02:18.754Z,91.84
2022-11-25T11:04:59.829Z,92.15
2022-11-25T11:07:35.441Z,90.81
2022-11-25T11:10:20.344Z,91.11
2022-11-25T11:13:00.591Z,90.33
2022-11-25T11:15:33.989Z,90.66
2022-11-25T11:18:22.445Z,90.76
2022-11-25T11:20:54.658Z,91.24
2022-11-25T11:23:24.375Z,91.36
2022-11-25T11:26:01.843Z,91.38
2022-11-25T11:28:40.153Z,91.58
2022-11-25T11:31:22.716Z,91.90
2022-11-25T11:34:02.942Z,92.53
2022-11-25T11:36:43.089Z,91.75
2022-11-25T11:39:27.310Z,92.00
2022-11-25T11:42:06.268Z,92.51
2022-11-25T11:44:42.048Z,93.52
2022-11-25T11:47:25.076Z,93.88
2022-11-25T11:50:07.277Z,93.87
2022-11-25T11:52:51.750Z,93.42
2022-11-25T11:55:40.869Z,93.92
2022-11-25T11:58:27.222Z,93.73
2022-11-25T12:01:04.276Z,93.53
2022-11-25T12:03:41.831Z,93.90
2022-11-25T12:06:13.050Z,93.89
2022-11-25T12:08:56.112Z,93.45
2022-11-25T12:11:31.168Z,93.05
2022-11-25T12:14:18.438Z,93.78
2022-11-25T12:17:00.844Z,93.56
2022-11-25T12:19:38.724Z,93.95
2022-11-25T12:22:12.907Z,93.35
2022-11-25T12:24:50.691Z,92.78
2022-11-25T12:27:23.228Z,93.01
2022-11-25T12:29:57.583Z,93.14
2022-11-25T12:32:48.503Z,93.44
2022-11-25T12:35:26.665Z,93.38
2022-11-25T12:38:05.641Z,93.53
2022-11-25T12:40:39.249Z,93.63
2022-11-25T12:43:19.772Z,93.26
2022-11-25T12:46:08.243Z,92.83
2022-11-25T12:55:28.399Z,93.53
2022-11-25T12:58:24.873Z,93.72
2022-11-25T13:01:25.360Z,93.22
2022-11-25T13:04:25.295Z,92.99
2022-11-25T13:07:23.910Z,92.41
2022-11-25T13:10:16.749Z,92.20
2022-11-25T13:13:02.413Z,91.94
2022-11-25T13:15:37.626Z,92.11
2022-11-25T13:18:15.137Z,92.47
2022-11-25T13:20:53.667Z,91.84
2022-11-25T13:23:30.206Z,91.74
2022-11-25T13:26:29.056Z,91.47
2022-11-25T13:29:01.015Z,91.40
2022-11-25T13:31:34.805Z,91.77
2022-11-25T13:34:26.602Z,91.62
2022-11-25T13:36:57.823Z,91.83
2022-11-25T13:39:34.896Z,91.84
2022-11-25T13:42:07.214Z,91.81
2022-11-25T13:44:52.503Z,91.16
2022-11-25T13:47:33.078Z,91.14
2022-11-25T13:50:12.325Z,91.57
2022-11-25T13:52:45.333Z,91.75
2022-11-25T13:55:28.246Z,91.67
2022-11-25T13:58:18.633Z,91.57
2022-11-25T14:01:03.887Z,91.76
2022-11-25T14:03:49.616Z,91.75
2022-11-25T14:06:43.634Z,91.41
2022-11-25T14:09:21.227Z,91.83
2022-11-25T14:12:14.509Z,92.05
2022-11-25T14:14:58.712Z,92.04
2022-11-25T14:17:50.356Z,91.92
2022-11-25T14:20:34.331Z,92.04
2022-11-25T14:23:28.072Z,92.37
2022-11-25T14:25:59.615Z,92.10
2022-11-25T14:28:40.405Z,92.17
2022-11-25T14:31:15.608Z,92.23
2022-11-25T14:33:53.383Z,92.23
2022-11-25T14:36:26.415Z,91.37
2022-11-25T14:39:00.425Z,91.66
2022-11-25T14:41:34.778Z,92.05
2022-11-25T14:44:14.601Z,92.27
2022-11-25T14:46:53.581Z,91.29
2022-11-25T14:49:55.343Z,92.07
2022-11-25T14:52:37.926Z,92.04
2022-11-25T14:55:09.066Z,91.75
2022-11-25T14:57:41.889Z,91.88
2022-11-25T15:00:19.910Z,91.77
2022-11-25T15:03:02.515Z,91.59
2022-11-25T15:05:42.314Z,92.59
2022-11-25T15:08:15.247Z,93.18
2022-11-25T15:10:51.218Z,92.62
2022-11-25T15:13:37.227Z,92.85
2022-11-25T15:16:10.405Z,92.79
2022-11-25T15:18:40.667Z,92.93
2022-11-25T15:21:16.444Z,93.38
2022-11-25T15:23:45.776Z,92.83
2022-11-25T15:26:20.465Z,92.24
2022-11-25T15:28:49.953Z,93.51
2022-11-25T15:31:27.115Z,93.33
2022-11-25T15:34:00.265Z,93.76
2022-11-25T15:36:31.786Z,93.56
2022-11-25T15:39:16.260Z,93.03
2022-11-25T15:41:47.324Z,93.39
2022-11-25T15:44:27.624Z,93.69
2022-11-25T15:47:07.726Z,94.02
2022-11-25T15:49:38.142Z,93.81
2022-11-25T15:52:22.173Z,93.65
2022-11-25T15:55:01.838Z,93.31
2022-11-25T15:57:36.307Z,93.02
2022-11-25T16:00:17.571Z,93.08
2022-11-25T16:03:02.715Z,93.10
2022-11-25T16:05:37.284Z,92.87
2022-11-25T16:08:36.392Z,93.57
2022-11-25T16:11:18.939Z,93.06
2022-11-25T16:13:55.879Z,93.09
2022-11-25T16:16:27.963Z,92.71
2022-11-25T16:19:16.778Z,93.36
2022-11-25T16:21:54.036Z,93.28
2022-11-25T16:24:38.466Z,93.35
2022-11-25T16:27:16.153Z,93.70
2022-11-25T16:29:52.221Z,93.57
2022-11-25T16:32:23.826Z,93.65
2022-11-25T16:34:55.701Z,93.85
2022-11-25T16:37:24.568Z,93.63
2022-11-25T16:39:55.685Z,93.19
2022-11-25T16:42:29.992Z,93.27
2022-11-25T16:44:59.364Z,93.19
2022-11-25T16:47:28.646Z,93.10
2022-11-25T16:49:57.917Z,93.02
2022-11-25T16:52:27.176Z,93.27
2022-11-25T16:54:58.531Z,92.95
2022-11-25T16:57:27.924Z,93.19
2022-11-25T17:00:00.437Z,93.73
2022-11-25T17:02:35.864Z,93.55
2022-11-25T17:05:18.199Z,93.69
2022-11-25T17:07:49.852Z,94.54
2022-11-25T17:10:23.009Z,93.44
2022-11-25T17:12:52.740Z,93.89
2022-11-25T17:15:27.167Z,94.19
2022-11-25T17:18:02.831Z,93.93
2022-11-25T17:20:32.022Z,93.91
2022-11-25T17:23:01.890Z,93.46
2022-11-25T17:25:37.203Z,93.92
2022-11-25T17:28:07.308Z,93.84
2022-11-25T17:30:41.734Z,93.76
2022-11-25T17:33:15.569Z,93.55
2022-11-25T17:35:50.238Z,93.44
2022-11-25T17:38:23.314Z,94.02
2022-11-25T17:40:59.711Z,94.08
2022-11-25T17:43:34.503Z,94.14
2022-11-25T17:46:12.657Z,94.17
2022-11-25T17:48:43.159Z,93.92
2022-11-25T17:51:28.537Z,93.88
2022-11-25T17:53:59.293Z,94.23
2022-11-25T17:56:35.781Z,93.91
2022-11-25T17:59:15.834Z,95.11
2022-11-25T18:01:45.390Z,95.07
2022-11-25T18:04:23.927Z,95.20
2022-11-25T18:09:29.652Z,95.08
2022-11-25T18:12:03.137Z,95.06
2022-11-25T18:14:35.601Z,95.00
2022-11-25T18:17:07.907Z,94.82
2022-11-25T18:19:39.791Z,95.21
2022-11-25T18:22:15.017Z,95.31
2022-11-25T18:24:45.830Z,95.92
2022-11-25T18:27:23.777Z,95.27
2022-11-25T18:29:54.019Z,95.44
2022-11-25T18:32:24.458Z,95.58
2022-11-25T18:34:55.048Z,95.18
2022-11-25T18:37:24.228Z,95.39
2022-11-25T18:39:53.400Z,96.33
2022-11-25T18:42:30.917Z,96.19
2022-11-25T18:45:00.209Z,94.83
2022-11-25T18:47:34.674Z,96.08
2022-11-25T18:50:03.896Z,96.33
2022-11-25T18:52:33.054Z,95.96
2022-11-25T18:55:02.364Z,95.38
2022-11-25T18:57:34.658Z,95.12
2022-11-25T19:02:55.711Z,96.18
2022-11-25T19:05:27.845Z,96.58
2022-11-25T19:07:57.789Z,96.70
2022-11-25T19:10:30.102Z,96.85
2022-11-25T19:13:04.572Z,96.47
2022-11-25T19:15:36.920Z,95.75
2022-11-25T19:18:08.435Z,95.79
2022-11-25T19:20:38.622Z,95.76
2022-11-25T19:23:20.848Z,95.97
2022-11-25T19:25:57.757Z,95.64
2022-11-25T19:28:29.910Z,95.57
2022-11-25T19:31:05.021Z,95.73
2022-11-25T19:33:36.649Z,96.55
2022-11-25T19:36:06.320Z,96.04
2022-11-25T19:38:40.799Z,95.83
2022-11-25T19:41:10.726Z,96.92
2022-11-25T19:43:41.846Z,97.03
2022-11-25T19:46:29.741Z,96.67
2022-11-25T19:49:04.566Z,96.43
2022-11-25T19:51:36.638Z,96.56
2022-11-25T19:54:06.412Z,96.57
2022-11-25T19:56:37.220Z,96.08
2022-11-25T19:59:09.198Z,96.51
2022-11-25T20:01:42.222Z,96.47
2022-11-25T20:04:20.381Z,96.27
2022-11-25T20:06:55.869Z,96.26
2022-11-25T20:09:25.190Z,96.33
2022-11-25T20:11:58.268Z,96.53
2022-11-25T20:14:33.982Z,96.08
2022-11-25T20:17:06.091Z,96.29
2022-11-25T20:19:41.329Z,95.95
2022-11-25T20:22:18.069Z,95.73
2022-11-25T20:24:47.638Z,96.07
2022-11-25T20:27:18.057Z,96.90
2022-11-25T20:29:50.652Z,97.94
2022-11-25T20:32:28.428Z,97.97
2022-11-25T20:34:58.140Z,97.63
2022-11-25T20:37:29.748Z,97.21
2022-11-25T20:40:02.014Z,97.41
2022-11-25T20:42:33.474Z,97.26
2022-11-25T20:45:04.859Z,96.56
2022-11-25T20:47:34.315Z,96.60
2022-11-25T20:50:03.480Z,96.89
2022-11-25T20:52:34.607Z,97.19
2022-11-25T20:55:15.256Z,96.94
2022-11-25T20:57:47.983Z,97.22
2022-11-25T21:00:24.150Z,97.03
2022-11-25T21:02:54.695Z,97.06
2022-11-25T21:05:23.948Z,97.45
2022-11-25T21:07:54.864Z,97.35
2022-11-25T21:10:27.526Z,96.88
2022-11-25T21:12:57.574Z,96.85
2022-11-25T21:15:29.256Z,97.17
2022-11-25T21:17:59.311Z,96.91
2022-11-25T21:20:28.654Z,96.70
2022-11-25T21:23:05.123Z,96.93
2022-11-25T21:25:36.574Z,97.03
2022-11-25T21:28:06.825Z,96.99
2022-11-25T21:30:38.243Z,97.15
2022-11-25T21:33:11.454Z,97.03
2022-11-25T21:35:42.098Z,97.50
2022-11-25T21:38:23.515Z,97.55
2022-11-25T21:40:54.604Z,97.36
2022-11-25T21:43:28.349Z,97.12
2022-11-25T21:46:03.533Z,96.91
2022-11-25T21:48:33.633Z,97.02
2022-11-25T21:51:02.978Z,97.59
2022-11-25T21:53:37.138Z,97.65
2022-11-25T21:56:27.716Z,97.76
2022-11-25T21:58:57.824Z,97.40
2022-11-25T22:01:29.557Z,97.37
2022-11-25T22:04:08.391Z,98.04
2022-11-25T22:06:42.819Z,98.66
2022-11-25T22:09:12.918Z,97.98
2022-11-25T22:11:49.638Z,97.99
2022-11-25T22:14:28.320Z,98.46
2022-11-25T22:16:59.742Z,98.23
2022-11-25T22:19:30.007Z,98.92
2022-11-25T22:21:59.086Z,98.91
2022-11-25T22:24:38.808Z,98.54
2022-11-25T22:27:08.377Z,99.26
2022-11-25T22:29:38.441Z,99.23
2022-11-25T22:32:12.910Z,98.93
2022-11-25T22:34:42.266Z,99.45
2022-11-25T22:37:18.908Z,99.84
2022-11-25T22:39:48.665Z,99.69
2022-11-25T22:42:23.811Z,99.29
2022-11-25T22:45:00.518Z,99.50
2022-11-25T22:47:41.151Z,98.86
2022-11-25T22:50:19.513Z,99.59
2022-11-25T22:52:49.178Z,99.68
2022-11-25T22:55:22.132Z,99.90
2022-11-25T22:57:53.103Z,99.59
2022-11-25T23:00:27.529Z,99.73
2022-11-25T23:03:06.009Z,99.72
2022-11-25T23:05:37.245Z,99.35
2022-11-25T23:08:14.023Z,100.00
2022-11-25T23:10:44.050Z,99.56
2022-11-25T23:13:14.104Z,100.00
2022-11-25T23:15:52.814Z,99.84
2022-11-25T23:18:27.936Z,100.00
2022-11-25T23:20:57.732Z,100.00
2022-11-25T23:23:31.598Z,100.00
2022-11-25T23:26:10.942Z,100.00
2022-11-25T23:28:40.083Z,99.82
2022-11-25T23:31:12.615Z,99.18
2022-11-25T23:33:46.951Z,99.00
2022-11-25T23:36:19.588Z,99.40
2022-11-25T23:38:53.455Z,99.61
2022-11-25T23:41:24.765Z,100.00
2022-11-25T23:43:54.868Z,100.00
2022-11-25T23:46:26.442Z,100.00
2022-11-25T23:49:01.056Z,100.00
2022-11-25T23:51:35.703Z,100.00
2022-11-25T23:54:04.996Z,100.00
2022-11-25T23:56:34.305Z,100.00
2022-11-25T23:59:14.592Z,100.00
